createdAt,value
2017-08-14T00:02:01.471Z,15.80
2017-08-14T00:04:29.787Z,15.80
2017-08-14T00:06:57.353Z,15.70
2017-08-14T00:09:24.938Z,15.80
2017-08-14T00:11:52.480Z,15.80
2017-08-14T00:14:20.030Z,15.80
2017-08-14T00:16:47.593Z,15.80
2017-08-14T00:19:15.165Z,15.80
2017-08-14T00:21:42.704Z,15.80
2017-08-14T00:24:10.265Z,15.80
2017-08-14T00:26:37.844Z,15.80
2017-08-14T00:29:05.400Z,15.80
2017-08-14T00:31:32.925Z,15.90
2017-08-14T00:34:00.484Z,15.90
2017-08-14T00:36:28.014Z,15.80
2017-08-14T00:38:56.313Z,16.00
2017-08-14T00:41:23.863Z,16.00
2017-08-14T00:43:51.396Z,16.00
2017-08-14T00:46:18.950Z,16.10
2017-08-14T00:48:46.481Z,16.00
2017-08-14T00:51:14.012Z,16.00
2017-08-14T00:53:41.561Z,16.00
2017-08-14T00:56:09.861Z,16.30
2017-08-14T00:58:37.409Z,16.20
2017-08-14T01:01:05.012Z,16.20
2017-08-14T01:03:32.547Z,16.10
2017-08-14T01:06:00.125Z,16.10
2017-08-14T01:08:27.661Z,16.10
2017-08-14T01:10:55.225Z,16.00
2017-08-14T01:13:22.760Z,16.10
2017-08-14T01:15:51.056Z,16.00
2017-08-14T01:18:18.617Z,16.00
2017-08-14T01:20:46.152Z,16.00
2017-08-14T01:23:14.466Z,16.00
2017-08-14T01:25:42.004Z,16.10
2017-08-14T01:28:09.570Z,16.00
2017-08-14T01:30:37.124Z,16.20
2017-08-14T01:33:04.661Z,16.30
2017-08-14T01:35:32.986Z,16.00
2017-08-14T01:38:00.530Z,16.10
2017-08-14T01:40:28.068Z,16.00
2017-08-14T01:42:55.618Z,15.80
2017-08-14T01:45:23.916Z,15.70
2017-08-14T01:47:51.468Z,15.70
2017-08-14T01:50:19.017Z,15.60
2017-08-14T01:52:46.584Z,15.60
2017-08-14T01:55:14.895Z,15.60
2017-08-14T01:57:42.445Z,15.60
2017-08-14T02:00:10.029Z,15.50
2017-08-14T02:02:37.584Z,15.50
2017-08-14T02:05:05.126Z,15.40
2017-08-14T02:07:32.667Z,15.30
2017-08-14T02:10:00.222Z,15.30
2017-08-14T02:12:28.517Z,15.20
2017-08-14T02:14:56.073Z,15.20
2017-08-14T02:17:23.604Z,15.20
2017-08-14T02:19:51.930Z,15.20
2017-08-14T02:22:19.466Z,15.20
2017-08-14T02:24:47.008Z,15.20
2017-08-14T02:27:15.337Z,15.20
2017-08-14T02:29:42.873Z,15.20
2017-08-14T02:32:10.427Z,15.20
2017-08-14T02:34:37.972Z,15.20
2017-08-14T02:37:05.509Z,15.20
2017-08-14T02:39:33.845Z,15.10
2017-08-14T02:42:01.403Z,15.10
2017-08-14T02:44:28.929Z,15.20
2017-08-14T02:46:56.492Z,15.20
2017-08-14T02:49:24.025Z,15.30
2017-08-14T02:51:52.357Z,15.30
2017-08-14T02:54:19.882Z,15.20
2017-08-14T02:56:48.177Z,15.20
2017-08-14T02:59:15.736Z,15.20
2017-08-14T03:01:43.262Z,15.20
2017-08-14T03:04:11.596Z,15.20
2017-08-14T03:06:39.120Z,15.20
2017-08-14T03:09:06.682Z,15.20
2017-08-14T03:11:34.217Z,15.10
2017-08-14T03:14:01.768Z,15.10
2017-08-14T03:16:29.315Z,15.10
2017-08-14T03:18:56.852Z,15.00
2017-08-14T03:21:24.397Z,15.00
2017-08-14T03:23:51.949Z,14.90
2017-08-14T03:26:19.491Z,14.80
2017-08-14T03:28:47.026Z,14.80
2017-08-14T03:31:14.597Z,14.80
2017-08-14T03:33:42.912Z,14.60
2017-08-14T03:36:10.441Z,14.60
2017-08-14T03:38:38.740Z,14.50
2017-08-14T03:41:06.321Z,14.40
2017-08-14T03:43:33.875Z,14.50
2017-08-14T03:46:01.441Z,14.40
2017-08-14T03:48:29.215Z,14.40
2017-08-14T03:50:56.799Z,14.40
2017-08-14T03:53:24.369Z,14.30
2017-08-14T03:55:51.901Z,14.20
2017-08-14T03:58:19.450Z,14.20
2017-08-14T04:00:46.987Z,14.20
2017-08-14T04:03:14.508Z,14.20
2017-08-14T04:05:42.050Z,14.20
2017-08-14T04:08:10.371Z,14.20
2017-08-14T04:10:37.926Z,14.10
2017-08-14T04:13:05.492Z,14.10
2017-08-14T04:15:33.046Z,14.10
2017-08-14T04:18:00.576Z,14.10
2017-08-14T04:20:28.876Z,14.00
2017-08-14T04:22:56.432Z,14.00
2017-08-14T04:25:23.968Z,14.10
2017-08-14T04:27:52.293Z,14.10
2017-08-14T04:30:19.830Z,14.00
2017-08-14T04:32:47.386Z,14.00
2017-08-14T04:35:14.929Z,14.00
2017-08-14T04:37:42.496Z,14.00
2017-08-14T04:40:10.030Z,14.00
2017-08-14T04:42:38.332Z,14.00
2017-08-14T04:45:05.890Z,14.00
2017-08-14T04:47:33.425Z,14.00
2017-08-14T04:50:01.713Z,14.00
2017-08-14T04:52:30.039Z,14.00
2017-08-14T04:54:57.577Z,14.00
2017-08-14T04:57:25.126Z,14.00
2017-08-14T04:59:52.665Z,14.10
2017-08-14T05:02:21.003Z,14.20
2017-08-14T05:04:48.542Z,14.20
2017-08-14T05:07:16.096Z,14.20
2017-08-14T05:09:43.630Z,14.20
2017-08-14T05:12:11.929Z,14.30
2017-08-14T05:14:39.484Z,14.30
2017-08-14T05:17:07.018Z,14.30
2017-08-14T05:19:35.319Z,14.40
2017-08-14T05:22:02.878Z,14.40
2017-08-14T05:24:30.412Z,14.50
2017-08-14T05:26:58.709Z,14.70
2017-08-14T05:29:26.280Z,14.60
2017-08-14T05:31:53.837Z,14.70
2017-08-14T05:34:21.383Z,14.80
2017-08-14T05:36:48.929Z,14.80
2017-08-14T05:39:17.229Z,14.90
2017-08-14T05:41:44.778Z,15.00
2017-08-14T05:44:13.101Z,15.10
2017-08-14T05:46:40.647Z,15.10
2017-08-14T05:49:08.171Z,15.20
2017-08-14T05:51:36.477Z,15.50
2017-08-14T05:54:04.013Z,15.40
2017-08-14T05:56:32.333Z,15.70
2017-08-14T05:58:59.864Z,15.70
2017-08-14T06:01:27.385Z,15.90
2017-08-14T06:03:54.945Z,16.00
2017-08-14T06:06:22.477Z,16.20
2017-08-14T06:08:50.020Z,16.30
2017-08-14T06:11:17.560Z,16.40
2017-08-14T06:13:45.088Z,16.50
2017-08-14T06:16:12.645Z,16.70
2017-08-14T06:18:40.261Z,16.70
2017-08-14T06:21:07.804Z,16.80
2017-08-14T06:23:35.360Z,17.10
2017-08-14T06:26:02.893Z,17.20
2017-08-14T06:28:31.252Z,17.60
2017-08-14T06:30:58.790Z,17.60
2017-08-14T06:33:26.324Z,18.30
2017-08-14T06:35:53.874Z,18.90
2017-08-14T06:38:21.400Z,19.50
2017-08-14T06:40:48.953Z,19.80
2017-08-14T06:43:16.477Z,20.00
2017-08-14T06:45:44.006Z,20.40
2017-08-14T06:48:11.556Z,21.10
2017-08-14T06:50:39.853Z,21.80
2017-08-14T06:53:07.401Z,21.80
2017-08-14T06:55:34.948Z,22.40
2017-08-14T06:58:03.236Z,23.50
2017-08-14T07:00:30.802Z,23.40
2017-08-14T07:02:58.335Z,23.90
2017-08-14T07:05:26.633Z,24.60
2017-08-14T07:07:54.177Z,24.50
2017-08-14T07:10:22.461Z,25.10
2017-08-14T07:12:50.775Z,25.20
2017-08-14T07:15:18.312Z,25.10
2017-08-14T07:17:45.849Z,24.70
2017-08-14T07:20:14.172Z,23.80
2017-08-14T07:22:41.723Z,23.70
2017-08-14T07:25:09.261Z,23.00
2017-08-14T07:27:36.851Z,23.50
2017-08-14T07:30:04.373Z,23.70
2017-08-14T07:32:32.693Z,24.40
2017-08-14T07:35:00.224Z,24.40
2017-08-14T07:37:27.748Z,24.50
2017-08-14T07:39:55.304Z,25.30
2017-08-14T07:42:22.820Z,26.30
2017-08-14T07:44:50.356Z,25.90
2017-08-14T07:47:18.666Z,26.10
2017-08-14T07:49:46.217Z,26.00
2017-08-14T07:52:13.751Z,26.80
2017-08-14T07:54:41.288Z,27.00
2017-08-14T07:57:09.614Z,26.70
2017-08-14T07:59:37.164Z,26.60
2017-08-14T08:02:04.711Z,26.70
2017-08-14T08:04:32.241Z,27.80
2017-08-14T08:06:59.793Z,28.40
2017-08-14T08:09:27.340Z,28.10
2017-08-14T08:11:54.876Z,28.60
2017-08-14T08:14:22.460Z,28.30
2017-08-14T08:16:49.992Z,28.70
2017-08-14T08:19:17.533Z,28.80
2017-08-14T08:21:45.061Z,29.20
2017-08-14T08:24:12.604Z,29.00
2017-08-14T08:26:40.145Z,29.10
2017-08-14T08:29:07.667Z,29.70
2017-08-14T08:31:35.212Z,30.10
2017-08-14T08:34:03.506Z,28.60
2017-08-14T08:36:31.045Z,28.60
2017-08-14T08:38:59.338Z,28.00
2017-08-14T08:41:26.903Z,28.00
2017-08-14T08:43:54.429Z,27.60
2017-08-14T08:46:21.981Z,28.10
2017-08-14T08:48:49.505Z,27.90
2017-08-14T08:51:17.045Z,27.30
2017-08-14T08:53:44.590Z,27.20
2017-08-14T08:56:12.121Z,27.20
2017-08-14T08:58:39.649Z,26.40
2017-08-14T09:01:07.212Z,26.80
2017-08-14T09:03:34.737Z,27.70
2017-08-14T09:06:02.328Z,28.60
2017-08-14T09:08:29.853Z,29.20
2017-08-14T09:10:57.448Z,29.20
2017-08-14T09:13:25.013Z,28.40
2017-08-14T09:15:52.533Z,28.10
2017-08-14T09:18:20.105Z,28.50
2017-08-14T09:20:47.631Z,29.10
2017-08-14T09:23:15.917Z,27.50
2017-08-14T09:25:44.226Z,27.20
2017-08-14T09:28:11.761Z,27.10
2017-08-14T09:30:40.077Z,25.70
2017-08-14T09:33:07.610Z,25.70
2017-08-14T09:35:35.163Z,26.30
2017-08-14T09:38:02.687Z,26.50
2017-08-14T09:40:30.209Z,28.70
2017-08-14T09:42:57.766Z,30.20
2017-08-14T09:45:25.305Z,29.80
2017-08-14T09:47:52.845Z,29.30
2017-08-14T09:50:21.138Z,29.50
2017-08-14T09:52:48.721Z,29.50
2017-08-14T09:55:16.280Z,31.60
2017-08-14T09:57:43.813Z,32.70
2017-08-14T10:00:11.343Z,34.40
2017-08-14T10:02:38.904Z,33.50
2017-08-14T10:05:06.429Z,31.40
2017-08-14T10:07:33.965Z,30.20
2017-08-14T10:10:01.542Z,30.80
2017-08-14T10:12:29.090Z,31.60
2017-08-14T10:14:56.625Z,30.10
2017-08-14T10:17:24.181Z,28.90
2017-08-14T10:19:52.511Z,30.50
2017-08-14T10:22:20.057Z,30.50
2017-08-14T10:24:47.605Z,29.90
2017-08-14T10:27:15.137Z,29.30
2017-08-14T10:29:43.445Z,30.50
2017-08-14T10:32:10.964Z,30.40
2017-08-14T10:34:39.270Z,32.60
2017-08-14T10:37:06.849Z,32.60
2017-08-14T10:39:34.406Z,30.90
2017-08-14T10:42:01.968Z,31.20
2017-08-14T10:44:29.520Z,32.40
2017-08-14T10:46:57.046Z,32.30
2017-08-14T10:49:25.358Z,30.60
2017-08-14T10:51:52.893Z,30.60
2017-08-14T10:54:20.445Z,30.10
2017-08-14T10:56:48.733Z,33.30
2017-08-14T10:59:16.268Z,33.30
2017-08-14T11:01:43.829Z,34.30
2017-08-14T11:04:11.352Z,35.10
2017-08-14T11:06:38.909Z,34.60
2017-08-14T11:09:06.449Z,32.60
2017-08-14T11:11:34.034Z,31.10
2017-08-14T11:14:01.581Z,30.10
2017-08-14T11:16:29.118Z,28.80
2017-08-14T11:18:56.683Z,29.50
2017-08-14T11:21:24.210Z,29.50
2017-08-14T11:23:52.537Z,28.50
2017-08-14T11:26:20.108Z,28.50
2017-08-14T11:28:47.660Z,28.20
2017-08-14T11:31:15.212Z,28.50
2017-08-14T11:33:42.745Z,28.40
2017-08-14T11:36:10.284Z,27.90
2017-08-14T11:38:38.590Z,28.10
2017-08-14T11:41:06.144Z,28.00
2017-08-14T11:43:33.692Z,27.80
2017-08-14T11:46:02.025Z,28.40
2017-08-14T11:48:29.572Z,28.40
2017-08-14T11:50:57.286Z,28.50
2017-08-14T11:53:25.602Z,27.30
2017-08-14T11:55:53.137Z,27.30
2017-08-14T11:58:21.429Z,27.40
2017-08-14T12:00:49.019Z,27.40
2017-08-14T12:03:16.578Z,27.40
2017-08-14T12:05:44.098Z,27.30
2017-08-14T12:08:11.632Z,27.70
2017-08-14T12:10:39.177Z,28.40
2017-08-14T12:13:06.731Z,29.20
2017-08-14T12:15:34.265Z,29.70
2017-08-14T12:18:01.925Z,29.80
2017-08-14T12:20:29.482Z,29.70
2017-08-14T12:22:57.009Z,30.00
2017-08-14T12:25:25.315Z,30.10
2017-08-14T12:27:52.877Z,30.10
2017-08-14T12:30:20.419Z,30.00
2017-08-14T12:32:47.961Z,28.30
2017-08-14T12:35:16.252Z,27.90
2017-08-14T12:37:43.800Z,27.80
2017-08-14T12:40:12.116Z,28.70
2017-08-14T12:42:39.655Z,28.70
2017-08-14T12:45:07.315Z,29.20
2017-08-14T12:47:34.856Z,29.60
2017-08-14T12:50:03.149Z,29.80
2017-08-14T12:52:30.700Z,29.80
2017-08-14T12:54:58.986Z,28.90
2017-08-14T12:57:26.533Z,28.90
2017-08-14T12:59:54.849Z,28.10
2017-08-14T13:02:22.374Z,28.10
2017-08-14T13:04:49.929Z,27.90
2017-08-14T13:07:18.222Z,28.00
2017-08-14T13:09:45.768Z,28.00
2017-08-14T13:12:14.061Z,27.60
2017-08-14T13:14:41.591Z,27.60
2017-08-14T13:17:09.929Z,27.80
2017-08-14T13:19:37.469Z,27.80
2017-08-14T13:22:04.997Z,28.00
2017-08-14T13:24:33.302Z,28.60
2017-08-14T13:27:00.826Z,28.60
2017-08-14T13:29:29.144Z,29.40
2017-08-14T13:31:56.692Z,29.40
2017-08-14T13:34:24.242Z,29.60
2017-08-14T13:36:51.785Z,29.10
2017-08-14T13:39:20.079Z,28.60
2017-08-14T13:41:47.649Z,28.50
2017-08-14T13:44:15.168Z,28.50
2017-08-14T13:46:42.690Z,27.90
2017-08-14T13:49:10.248Z,27.70
2017-08-14T13:51:37.785Z,27.40
2017-08-14T13:54:05.342Z,27.30
2017-08-14T13:56:32.869Z,27.30
2017-08-14T13:59:00.426Z,27.70
2017-08-14T14:01:27.978Z,28.00
2017-08-14T14:03:55.526Z,28.40
2017-08-14T14:06:23.077Z,29.00
2017-08-14T14:08:50.613Z,29.30
2017-08-14T14:11:18.136Z,28.90
2017-08-14T14:13:46.444Z,27.80
2017-08-14T14:16:13.974Z,27.70
2017-08-14T14:18:42.273Z,27.60
2017-08-14T14:21:09.830Z,27.60
2017-08-14T14:23:37.357Z,27.80
2017-08-14T14:26:04.906Z,28.20
2017-08-14T14:28:32.443Z,27.80
2017-08-14T14:30:59.968Z,28.00
2017-08-14T14:33:27.539Z,27.50
2017-08-14T14:35:55.104Z,27.10
2017-08-14T14:38:22.665Z,27.40
2017-08-14T14:40:50.188Z,27.80
2017-08-14T14:43:18.506Z,27.30
2017-08-14T14:45:46.046Z,27.30
2017-08-14T14:48:13.613Z,27.30
2017-08-14T14:50:41.129Z,27.40
2017-08-14T14:53:08.682Z,27.50
2017-08-14T14:55:36.217Z,27.20
2017-08-14T14:58:03.737Z,27.20
2017-08-14T15:00:31.265Z,27.20
2017-08-14T15:02:58.816Z,27.40
2017-08-14T15:05:26.348Z,27.50
2017-08-14T15:07:53.898Z,27.50
2017-08-14T15:10:21.458Z,27.20
2017-08-14T15:12:49.043Z,27.50
2017-08-14T15:15:16.613Z,27.60
2017-08-14T15:17:44.154Z,27.60
2017-08-14T15:20:11.707Z,27.20
2017-08-14T15:22:39.229Z,27.30
2017-08-14T15:25:06.778Z,27.10
2017-08-14T15:27:35.069Z,27.10
2017-08-14T15:30:02.868Z,27.10
2017-08-14T15:32:30.400Z,27.40
2017-08-14T15:34:57.920Z,27.50
2017-08-14T15:37:25.469Z,27.80
2017-08-14T15:39:53.017Z,27.50
2017-08-14T15:42:20.541Z,27.60
2017-08-14T15:44:48.092Z,27.60
2017-08-14T15:47:15.616Z,27.30
2017-08-14T15:49:43.144Z,27.20
2017-08-14T15:52:10.693Z,27.30
2017-08-14T15:54:38.221Z,27.00
2017-08-14T15:57:06.537Z,27.30
2017-08-14T15:59:34.077Z,27.30
2017-08-14T16:02:01.605Z,27.40
2017-08-14T16:04:29.933Z,27.00
2017-08-14T16:06:57.452Z,27.00
2017-08-14T16:09:25.019Z,26.70
2017-08-14T16:11:52.606Z,26.90
2017-08-14T16:14:20.165Z,26.90
2017-08-14T16:16:47.709Z,26.70
2017-08-14T16:19:15.238Z,26.50
2017-08-14T16:21:42.793Z,26.40
2017-08-14T16:24:10.324Z,26.20
2017-08-14T16:26:37.878Z,26.20
2017-08-14T16:29:05.429Z,26.00
2017-08-14T16:31:33.725Z,25.70
2017-08-14T16:34:01.252Z,25.60
2017-08-14T16:36:28.802Z,25.60
2017-08-14T16:38:56.346Z,25.50
2017-08-14T16:41:23.889Z,25.40
2017-08-14T16:43:51.442Z,25.40
2017-08-14T16:46:18.988Z,25.50
2017-08-14T16:48:46.505Z,25.50
2017-08-14T16:51:14.074Z,25.50
2017-08-14T16:53:41.622Z,25.50
2017-08-14T16:56:09.162Z,25.50
2017-08-14T16:58:37.505Z,25.30
2017-08-14T17:01:05.047Z,25.30
2017-08-14T17:03:32.605Z,25.20
2017-08-14T17:06:00.141Z,25.20
2017-08-14T17:08:27.694Z,25.10
2017-08-14T17:10:55.977Z,25.10
2017-08-14T17:13:23.517Z,25.00
2017-08-14T17:15:51.834Z,25.00
2017-08-14T17:18:19.374Z,25.00
2017-08-14T17:20:46.937Z,24.90
2017-08-14T17:23:14.466Z,24.90
2017-08-14T17:25:41.985Z,24.90
2017-08-14T17:28:09.569Z,24.80
2017-08-14T17:30:37.199Z,24.80
2017-08-14T17:33:04.748Z,24.80
2017-08-14T17:35:32.289Z,24.80
2017-08-14T17:37:59.846Z,24.80
2017-08-14T17:40:28.144Z,24.70
2017-08-14T17:42:55.671Z,24.70
2017-08-14T17:45:23.992Z,24.70
2017-08-14T17:47:51.534Z,24.60
2017-08-14T17:50:19.074Z,24.70
2017-08-14T17:52:47.369Z,24.60
2017-08-14T17:55:14.980Z,24.60
2017-08-14T17:57:42.525Z,24.50
2017-08-14T18:00:10.073Z,24.50
2017-08-14T18:02:37.703Z,24.40
2017-08-14T18:05:05.274Z,24.40
2017-08-14T18:07:32.822Z,24.30
2017-08-14T18:10:00.369Z,24.30
2017-08-14T18:12:28.658Z,24.10
2017-08-14T18:14:56.212Z,24.00
2017-08-14T18:17:23.772Z,24.00
2017-08-14T18:19:52.085Z,23.80
2017-08-14T18:22:19.627Z,23.80
2017-08-14T18:24:47.176Z,23.70
2017-08-14T18:27:14.716Z,23.60
2017-08-14T18:29:43.014Z,23.40
2017-08-14T18:32:10.545Z,23.30
2017-08-14T18:34:38.099Z,23.20
2017-08-14T18:37:05.661Z,23.10
2017-08-14T18:39:33.972Z,22.80
2017-08-14T18:42:01.514Z,22.80
2017-08-14T18:44:29.845Z,22.60
2017-08-14T18:46:57.393Z,22.50
2017-08-14T18:49:24.950Z,22.50
2017-08-14T18:51:52.479Z,22.30
2017-08-14T18:54:20.765Z,22.00
2017-08-14T18:56:48.352Z,22.00
2017-08-14T18:59:15.882Z,21.90
2017-08-14T19:01:43.446Z,21.90
2017-08-14T19:04:10.967Z,22.10
2017-08-14T19:06:38.502Z,22.00
2017-08-14T19:09:07.404Z,21.90
2017-08-14T19:11:34.426Z,21.70
2017-08-14T19:14:01.970Z,21.70
2017-08-14T19:16:29.504Z,21.70
2017-08-14T19:18:57.806Z,21.40
2017-08-14T19:21:25.376Z,21.40
2017-08-14T19:23:52.913Z,21.40
2017-08-14T19:26:20.464Z,21.30
2017-08-14T19:28:49.458Z,21.10
2017-08-14T19:31:17.753Z,21.10
2017-08-14T19:33:45.298Z,21.10
2017-08-14T19:36:13.593Z,20.90
2017-08-14T19:38:41.145Z,20.90
2017-08-14T19:41:08.682Z,20.90
2017-08-14T19:43:36.989Z,20.70
2017-08-14T19:46:04.558Z,20.60
2017-08-14T19:48:32.087Z,20.60
2017-08-14T19:50:59.650Z,20.50
2017-08-14T19:53:27.954Z,20.30
2017-08-14T19:55:55.481Z,20.30
2017-08-14T19:58:23.798Z,20.10
2017-08-14T20:00:51.357Z,20.10
2017-08-14T20:03:18.891Z,20.00
2017-08-14T20:05:46.450Z,20.00
2017-08-14T20:08:13.989Z,19.90
2017-08-14T20:10:42.330Z,19.90
2017-08-14T20:13:09.895Z,19.80
2017-08-14T20:15:37.457Z,19.80
2017-08-14T20:18:04.998Z,19.70
2017-08-14T20:20:32.664Z,19.70
2017-08-14T20:23:00.239Z,19.70
2017-08-14T20:25:27.777Z,19.60
2017-08-14T20:27:55.340Z,19.50
2017-08-14T20:30:22.883Z,19.50
2017-08-14T20:32:50.436Z,19.40
2017-08-14T20:35:17.993Z,19.30
2017-08-14T20:37:45.545Z,19.20
2017-08-14T20:40:13.114Z,19.20
2017-08-14T20:42:40.678Z,19.20
2017-08-14T20:45:08.207Z,19.10
2017-08-14T20:47:36.518Z,19.00
2017-08-14T20:50:04.067Z,19.00
2017-08-14T20:52:31.598Z,19.00
2017-08-14T20:54:59.164Z,19.00
2017-08-14T20:57:27.500Z,18.80
2017-08-14T20:59:55.064Z,18.80
2017-08-14T21:02:22.637Z,18.80
2017-08-14T21:04:50.165Z,18.70
2017-08-14T21:07:17.830Z,18.70
2017-08-14T21:09:45.377Z,18.60
2017-08-14T21:12:12.904Z,18.60
2017-08-14T21:14:41.217Z,18.60
2017-08-14T21:17:08.740Z,18.60
2017-08-14T21:19:37.053Z,18.50
2017-08-14T21:22:04.592Z,18.60
2017-08-14T21:24:32.165Z,18.60
2017-08-14T21:26:59.745Z,18.60
2017-08-14T21:29:27.287Z,18.70
2017-08-14T21:31:54.822Z,18.70
2017-08-14T21:34:23.143Z,18.70
2017-08-14T21:36:50.679Z,18.70
2017-08-14T21:39:18.261Z,18.70
2017-08-14T21:41:45.821Z,18.60
2017-08-14T21:44:13.374Z,18.60
2017-08-14T21:46:40.911Z,18.60
2017-08-14T21:49:08.461Z,18.50
2017-08-14T21:51:36.791Z,18.40
2017-08-14T21:54:04.342Z,18.40
2017-08-14T21:56:31.914Z,18.40
2017-08-14T21:58:59.465Z,18.40
2017-08-14T22:01:27.009Z,18.30
2017-08-14T22:03:54.545Z,18.30
2017-08-14T22:06:22.102Z,18.30
2017-08-14T22:08:49.632Z,18.20
2017-08-14T22:11:17.194Z,18.20
2017-08-14T22:13:45.592Z,18.10
2017-08-14T22:16:13.895Z,18.20
2017-08-14T22:18:41.454Z,18.20
2017-08-14T22:21:09.014Z,18.20
2017-08-14T22:23:36.570Z,18.20
2017-08-14T22:26:04.108Z,18.20
2017-08-14T22:28:32.429Z,18.10
2017-08-14T22:30:59.969Z,18.10
2017-08-14T22:33:27.512Z,18.20
2017-08-14T22:35:55.079Z,18.10
2017-08-14T22:38:22.628Z,18.10
2017-08-14T22:40:50.926Z,18.20
2017-08-14T22:43:18.485Z,18.10
2017-08-14T22:45:46.048Z,18.20
2017-08-14T22:48:13.610Z,18.20
2017-08-14T22:50:41.166Z,18.00
2017-08-14T22:53:08.705Z,18.00
2017-08-14T22:55:37.009Z,17.80
2017-08-14T22:58:04.613Z,17.80
2017-08-14T23:00:32.150Z,17.70
2017-08-14T23:02:59.702Z,17.70
2017-08-14T23:05:27.236Z,17.60
2017-08-14T23:07:54.802Z,17.60
2017-08-14T23:10:22.337Z,17.60
2017-08-14T23:12:49.894Z,17.60
2017-08-14T23:15:18.205Z,17.50
2017-08-14T23:17:45.732Z,17.50
2017-08-14T23:20:14.154Z,17.40
2017-08-14T23:22:41.690Z,17.40
2017-08-14T23:25:09.221Z,17.40
2017-08-14T23:27:37.538Z,17.30
2017-08-14T23:30:05.081Z,17.20
2017-08-14T23:32:32.650Z,17.20
2017-08-14T23:35:00.197Z,17.20
2017-08-14T23:37:27.738Z,17.10
2017-08-14T23:39:56.048Z,17.20
2017-08-14T23:42:23.577Z,17.10
2017-08-14T23:44:51.902Z,17.10
2017-08-14T23:47:19.425Z,17.10
2017-08-14T23:49:47.739Z,17.10
2017-08-14T23:52:15.282Z,17.10
2017-08-14T23:54:42.822Z,17.00
2017-08-14T23:57:11.117Z,17.10
2017-08-14T23:59:38.666Z,17.10
